sensor_id;sensor_type;location;lat;lon;timestamp;P1;durP1;ratioP1;P2;durP2;ratioP2
76284;SDS011;71676;50.998;7.098;2024-01-06T00:01:10;6.80;;;3.10;;
76284;SDS011;71676;50.998;7.098;2024-01-06T00:03:38;6.35;;;2.55;;
76284;SDS011;71676;50.998;7.098;2024-01-06T00:06:06;7.93;;;3.45;;
76284;SDS011;71676;50.998;7.098;2024-01-06T00:08:33;6.20;;;3.05;;
76284;SDS011;71676;50.998;7.098;2024-01-06T00:11:00;6.75;;;3.00;;
76284;SDS011;71676;50.998;7.098;2024-01-06T00:13:28;8.27;;;3.47;;
76284;SDS011;71676;50.998;7.098;2024-01-06T00:15:55;7.63;;;3.50;;
76284;SDS011;71676;50.998;7.098;2024-01-06T00:18:22;10.73;;;4.10;;
76284;SDS011;71676;50.998;7.098;2024-01-06T00:20:48;8.52;;;3.72;;
76284;SDS011;71676;50.998;7.098;2024-01-06T00:23:16;7.72;;;3.22;;
76284;SDS011;71676;50.998;7.098;2024-01-06T00:25:43;7.57;;;3.42;;
76284;SDS011;71676;50.998;7.098;2024-01-06T00:28:10;7.78;;;3.45;;
76284;SDS011;71676;50.998;7.098;2024-01-06T00:30:36;8.27;;;4.22;;
76284;SDS011;71676;50.998;7.098;2024-01-06T00:33:03;6.93;;;3.53;;
76284;SDS011;71676;50.998;7.098;2024-01-06T00:35:30;8.48;;;3.75;;
76284;SDS011;71676;50.998;7.098;2024-01-06T00:37:57;7.63;;;3.63;;
76284;SDS011;71676;50.998;7.098;2024-01-06T00:40:26;8.32;;;4.38;;
76284;SDS011;71676;50.998;7.098;2024-01-06T00:42:53;7.78;;;4.50;;
76284;SDS011;71676;50.998;7.098;2024-01-06T00:45:20;8.68;;;4.28;;
76284;SDS011;71676;50.998;7.098;2024-01-06T00:47:47;8.30;;;4.57;;
76284;SDS011;71676;50.998;7.098;2024-01-06T00:50:14;9.35;;;4.70;;
76284;SDS011;71676;50.998;7.098;2024-01-06T00:52:42;9.27;;;4.15;;
76284;SDS011;71676;50.998;7.098;2024-01-06T00:55:08;10.38;;;5.07;;
76284;SDS011;71676;50.998;7.098;2024-01-06T00:57:36;8.68;;;4.50;;
76284;SDS011;71676;50.998;7.098;2024-01-06T01:00:03;8.68;;;4.40;;
76284;SDS011;71676;50.998;7.098;2024-01-06T01:02:31;9.35;;;5.03;;
76284;SDS011;71676;50.998;7.098;2024-01-06T01:04:57;9.10;;;4.88;;
76284;SDS011;71676;50.998;7.098;2024-01-06T01:07:24;9.85;;;4.90;;
76284;SDS011;71676;50.998;7.098;2024-01-06T01:09:52;9.63;;;4.57;;
76284;SDS011;71676;50.998;7.098;2024-01-06T01:12:18;9.70;;;5.47;;
76284;SDS011;71676;50.998;7.098;2024-01-06T01:14:46;9.98;;;5.60;;
76284;SDS011;71676;50.998;7.098;2024-01-06T01:17:13;10.35;;;5.55;;
76284;SDS011;71676;50.998;7.098;2024-01-06T01:19:40;13.35;;;6.47;;
76284;SDS011;71676;50.998;7.098;2024-01-06T01:22:06;9.80;;;5.32;;
76284;SDS011;71676;50.998;7.098;2024-01-06T01:24:33;11.10;;;5.50;;
76284;SDS011;71676;50.998;7.098;2024-01-06T01:27:00;10.68;;;5.28;;
76284;SDS011;71676;50.998;7.098;2024-01-06T01:29:26;9.93;;;5.28;;
76284;SDS011;71676;50.998;7.098;2024-01-06T01:31:54;11.48;;;5.32;;
76284;SDS011;71676;50.998;7.098;2024-01-06T01:34:21;10.77;;;5.28;;
76284;SDS011;71676;50.998;7.098;2024-01-06T01:36:47;12.48;;;6.53;;
76284;SDS011;71676;50.998;7.098;2024-01-06T01:39:14;10.93;;;6.00;;
76284;SDS011;71676;50.998;7.098;2024-01-06T01:41:41;11.48;;;6.22;;
76284;SDS011;71676;50.998;7.098;2024-01-06T01:44:08;12.55;;;6.30;;
76284;SDS011;71676;50.998;7.098;2024-01-06T01:46:35;10.70;;;5.28;;
76284;SDS011;71676;50.998;7.098;2024-01-06T01:49:04;12.35;;;6.07;;
76284;SDS011;71676;50.998;7.098;2024-01-06T01:51:32;9.70;;;5.35;;
76284;SDS011;71676;50.998;7.098;2024-01-06T01:54:00;12.00;;;5.35;;
76284;SDS011;71676;50.998;7.098;2024-01-06T01:56:28;10.80;;;5.22;;
76284;SDS011;71676;50.998;7.098;2024-01-06T01:58:59;10.40;;;5.10;;
76284;SDS011;71676;50.998;7.098;2024-01-06T02:01:26;10.40;;;4.97;;
76284;SDS011;71676;50.998;7.098;2024-01-06T02:03:53;14.63;;;5.85;;
76284;SDS011;71676;50.998;7.098;2024-01-06T02:06:21;11.43;;;5.95;;
76284;SDS011;71676;50.998;7.098;2024-01-06T02:08:48;14.10;;;5.95;;
76284;SDS011;71676;50.998;7.098;2024-01-06T02:11:15;12.00;;;5.68;;
76284;SDS011;71676;50.998;7.098;2024-01-06T02:13:41;14.07;;;6.63;;
76284;SDS011;71676;50.998;7.098;2024-01-06T02:16:08;13.55;;;7.15;;
76284;SDS011;71676;50.998;7.098;2024-01-06T02:18:35;11.57;;;5.90;;
76284;SDS011;71676;50.998;7.098;2024-01-06T02:21:02;13.27;;;6.63;;
76284;SDS011;71676;50.998;7.098;2024-01-06T02:23:30;11.25;;;6.15;;
76284;SDS011;71676;50.998;7.098;2024-01-06T02:25:57;13.32;;;7.05;;
76284;SDS011;71676;50.998;7.098;2024-01-06T02:28:23;12.10;;;6.78;;
76284;SDS011;71676;50.998;7.098;2024-01-06T02:30:50;12.75;;;6.70;;
76284;SDS011;71676;50.998;7.098;2024-01-06T02:33:17;12.32;;;6.65;;
76284;SDS011;71676;50.998;7.098;2024-01-06T02:35:44;13.40;;;6.75;;
76284;SDS011;71676;50.998;7.098;2024-01-06T02:38:11;12.77;;;7.07;;
76284;SDS011;71676;50.998;7.098;2024-01-06T02:40:39;13.60;;;7.38;;
76284;SDS011;71676;50.998;7.098;2024-01-06T02:43:07;13.48;;;6.70;;
76284;SDS011;71676;50.998;7.098;2024-01-06T02:45:34;11.27;;;5.80;;
76284;SDS011;71676;50.998;7.098;2024-01-06T02:48:01;13.75;;;6.47;;
76284;SDS011;71676;50.998;7.098;2024-01-06T02:50:27;13.85;;;6.97;;
76284;SDS011;71676;50.998;7.098;2024-01-06T02:52:54;11.95;;;6.72;;
76284;SDS011;71676;50.998;7.098;2024-01-06T02:55:20;12.45;;;6.45;;
76284;SDS011;71676;50.998;7.098;2024-01-06T02:57:48;12.15;;;6.60;;
76284;SDS011;71676;50.998;7.098;2024-01-06T03:00:15;14.10;;;7.18;;
76284;SDS011;71676;50.998;7.098;2024-01-06T03:02:42;15.48;;;7.60;;
76284;SDS011;71676;50.998;7.098;2024-01-06T03:05:09;14.52;;;7.32;;
76284;SDS011;71676;50.998;7.098;2024-01-06T03:07:35;14.55;;;7.43;;
76284;SDS011;71676;50.998;7.098;2024-01-06T03:10:02;12.95;;;7.28;;
76284;SDS011;71676;50.998;7.098;2024-01-06T03:12:29;13.70;;;7.15;;
76284;SDS011;71676;50.998;7.098;2024-01-06T03:14:57;13.13;;;6.90;;
76284;SDS011;71676;50.998;7.098;2024-01-06T03:17:24;12.35;;;6.30;;
76284;SDS011;71676;50.998;7.098;2024-01-06T03:19:51;15.10;;;7.72;;
76284;SDS011;71676;50.998;7.098;2024-01-06T03:22:18;13.30;;;7.20;;
76284;SDS011;71676;50.998;7.098;2024-01-06T03:24:44;12.00;;;7.18;;
76284;SDS011;71676;50.998;7.098;2024-01-06T03:27:11;14.45;;;7.43;;
76284;SDS011;71676;50.998;7.098;2024-01-06T03:29:39;12.60;;;7.18;;
76284;SDS011;71676;50.998;7.098;2024-01-06T03:32:07;12.38;;;6.97;;
76284;SDS011;71676;50.998;7.098;2024-01-06T03:34:33;14.57;;;7.15;;
76284;SDS011;71676;50.998;7.098;2024-01-06T03:37:00;12.70;;;7.00;;
76284;SDS011;71676;50.998;7.098;2024-01-06T03:39:27;14.00;;;6.90;;
76284;SDS011;71676;50.998;7.098;2024-01-06T03:41:54;13.98;;;6.47;;
76284;SDS011;71676;50.998;7.098;2024-01-06T03:44:20;13.98;;;7.38;;
76284;SDS011;71676;50.998;7.098;2024-01-06T03:46:47;14.10;;;7.15;;
76284;SDS011;71676;50.998;7.098;2024-01-06T03:49:15;13.15;;;7.32;;
76284;SDS011;71676;50.998;7.098;2024-01-06T03:51:43;13.57;;;7.18;;
76284;SDS011;71676;50.998;7.098;2024-01-06T03:54:10;15.05;;;7.90;;
76284;SDS011;71676;50.998;7.098;2024-01-06T03:56:36;13.90;;;7.38;;
76284;SDS011;71676;50.998;7.098;2024-01-06T03:59:03;13.80;;;7.60;;
76284;SDS011;71676;50.998;7.098;2024-01-06T04:01:30;14.00;;;7.40;;
76284;SDS011;71676;50.998;7.098;2024-01-06T04:03:59;13.93;;;6.82;;
76284;SDS011;71676;50.998;7.098;2024-01-06T04:06:27;14.05;;;7.47;;
76284;SDS011;71676;50.998;7.098;2024-01-06T04:08:54;12.20;;;6.78;;
76284;SDS011;71676;50.998;7.098;2024-01-06T04:11:21;14.27;;;7.25;;
76284;SDS011;71676;50.998;7.098;2024-01-06T04:13:47;14.05;;;7.03;;
76284;SDS011;71676;50.998;7.098;2024-01-06T04:16:14;13.85;;;6.47;;
76284;SDS011;71676;50.998;7.098;2024-01-06T04:18:41;15.15;;;7.57;;
76284;SDS011;71676;50.998;7.098;2024-01-06T04:21:07;16.90;;;8.32;;
76284;SDS011;71676;50.998;7.098;2024-01-06T04:23:37;15.05;;;8.05;;
76284;SDS011;71676;50.998;7.098;2024-01-06T04:26:04;14.95;;;7.32;;
76284;SDS011;71676;50.998;7.098;2024-01-06T04:28:32;15.60;;;7.93;;
76284;SDS011;71676;50.998;7.098;2024-01-06T04:31:08;14.90;;;7.03;;
76284;SDS011;71676;50.998;7.098;2024-01-06T04:37:15;14.27;;;7.43;;
76284;SDS011;71676;50.998;7.098;2024-01-06T05:18:38;21.75;;;10.18;;
76284;SDS011;71676;50.998;7.098;2024-01-06T05:24:42;22.95;;;9.65;;
76284;SDS011;71676;50.998;7.098;2024-01-06T05:28:07;22.15;;;10.32;;
76284;SDS011;71676;50.998;7.098;2024-01-06T05:32:55;21.17;;;10.30;;
76284;SDS011;71676;50.998;7.098;2024-01-06T05:38:03;26.02;;;11.65;;
76284;SDS011;71676;50.998;7.098;2024-01-06T05:50:29;21.10;;;8.02;;
76284;SDS011;71676;50.998;7.098;2024-01-06T06:16:13;18.65;;;7.22;;
76284;SDS011;71676;50.998;7.098;2024-01-06T06:19:17;17.48;;;7.38;;
76284;SDS011;71676;50.998;7.098;2024-01-06T06:22:14;16.05;;;7.53;;
76284;SDS011;71676;50.998;7.098;2024-01-06T06:25:27;16.35;;;7.25;;
76284;SDS011;71676;50.998;7.098;2024-01-06T06:28:07;17.15;;;7.38;;
76284;SDS011;71676;50.998;7.098;2024-01-06T06:30:59;18.52;;;7.00;;
76284;SDS011;71676;50.998;7.098;2024-01-06T06:34:12;15.20;;;7.18;;
76284;SDS011;71676;50.998;7.098;2024-01-06T06:36:53;16.08;;;7.80;;
76284;SDS011;71676;50.998;7.098;2024-01-06T06:39:27;13.10;;;5.78;;
76284;SDS011;71676;50.998;7.098;2024-01-06T06:42:40;12.20;;;5.78;;
76284;SDS011;71676;50.998;7.098;2024-01-06T06:45:38;13.63;;;5.50;;
76284;SDS011;71676;50.998;7.098;2024-01-06T06:48:06;14.18;;;5.50;;
76284;SDS011;71676;50.998;7.098;2024-01-06T06:50:38;15.65;;;6.47;;
76284;SDS011;71676;50.998;7.098;2024-01-06T06:53:06;13.73;;;5.28;;
76284;SDS011;71676;50.998;7.098;2024-01-06T06:55:32;14.75;;;5.50;;
76284;SDS011;71676;50.998;7.098;2024-01-06T06:57:59;13.73;;;5.97;;
76284;SDS011;71676;50.998;7.098;2024-01-06T07:00:26;12.85;;;5.80;;
76284;SDS011;71676;50.998;7.098;2024-01-06T07:02:52;12.43;;;5.57;;
76284;SDS011;71676;50.998;7.098;2024-01-06T07:05:19;12.88;;;5.60;;
76284;SDS011;71676;50.998;7.098;2024-01-06T07:07:47;15.70;;;5.85;;
76284;SDS011;71676;50.998;7.098;2024-01-06T07:10:14;12.98;;;5.55;;
76284;SDS011;71676;50.998;7.098;2024-01-06T07:12:40;14.48;;;5.95;;
76284;SDS011;71676;50.998;7.098;2024-01-06T07:15:08;12.10;;;5.35;;
76284;SDS011;71676;50.998;7.098;2024-01-06T07:17:35;13.98;;;5.63;;
76284;SDS011;71676;50.998;7.098;2024-01-06T07:20:03;13.27;;;6.30;;
76284;SDS011;71676;50.998;7.098;2024-01-06T07:22:32;12.68;;;5.70;;
76284;SDS011;71676;50.998;7.098;2024-01-06T07:25:01;14.45;;;6.32;;
76284;SDS011;71676;50.998;7.098;2024-01-06T07:27:27;13.23;;;5.75;;
76284;SDS011;71676;50.998;7.098;2024-01-06T07:29:54;13.35;;;5.72;;
76284;SDS011;71676;50.998;7.098;2024-01-06T07:32:21;13.25;;;6.07;;
76284;SDS011;71676;50.998;7.098;2024-01-06T07:34:47;13.75;;;5.43;;
76284;SDS011;71676;50.998;7.098;2024-01-06T07:37:14;17.90;;;6.70;;
76284;SDS011;71676;50.998;7.098;2024-01-06T07:39:40;14.43;;;6.35;;
76284;SDS011;71676;50.998;7.098;2024-01-06T07:42:09;15.55;;;6.00;;
76284;SDS011;71676;50.998;7.098;2024-01-06T07:44:36;14.52;;;6.30;;
76284;SDS011;71676;50.998;7.098;2024-01-06T07:47:03;16.52;;;6.80;;
76284;SDS011;71676;50.998;7.098;2024-01-06T07:49:30;15.88;;;6.78;;
76284;SDS011;71676;50.998;7.098;2024-01-06T07:51:58;18.00;;;7.38;;
76284;SDS011;71676;50.998;7.098;2024-01-06T07:54:25;18.10;;;8.25;;
76284;SDS011;71676;50.998;7.098;2024-01-06T07:56:52;17.73;;;7.28;;
76284;SDS011;71676;50.998;7.098;2024-01-06T07:59:20;17.80;;;8.18;;
76284;SDS011;71676;50.998;7.098;2024-01-06T08:01:46;17.48;;;7.65;;
76284;SDS011;71676;50.998;7.098;2024-01-06T08:04:13;15.73;;;6.97;;
76284;SDS011;71676;50.998;7.098;2024-01-06T08:06:39;17.48;;;7.57;;
76284;SDS011;71676;50.998;7.098;2024-01-06T08:09:08;17.35;;;8.05;;
76284;SDS011;71676;50.998;7.098;2024-01-06T08:11:34;18.98;;;8.77;;
76284;SDS011;71676;50.998;7.098;2024-01-06T08:14:01;17.20;;;7.57;;
76284;SDS011;71676;50.998;7.098;2024-01-06T08:16:29;19.38;;;8.50;;
76284;SDS011;71676;50.998;7.098;2024-01-06T08:18:59;17.40;;;7.35;;
76284;SDS011;71676;50.998;7.098;2024-01-06T08:21:25;17.60;;;7.32;;
76284;SDS011;71676;50.998;7.098;2024-01-06T08:23:52;19.45;;;8.45;;
76284;SDS011;71676;50.998;7.098;2024-01-06T08:26:22;20.60;;;8.40;;
76284;SDS011;71676;50.998;7.098;2024-01-06T08:28:48;18.60;;;8.20;;
76284;SDS011;71676;50.998;7.098;2024-01-06T08:31:15;18.40;;;7.28;;
76284;SDS011;71676;50.998;7.098;2024-01-06T08:33:43;17.20;;;7.05;;
76284;SDS011;71676;50.998;7.098;2024-01-06T08:36:10;17.40;;;7.65;;
76284;SDS011;71676;50.998;7.098;2024-01-06T08:38:37;17.08;;;6.78;;
76284;SDS011;71676;50.998;7.098;2024-01-06T08:41:04;15.60;;;6.97;;
76284;SDS011;71676;50.998;7.098;2024-01-06T08:43:30;15.18;;;5.93;;
76284;SDS011;71676;50.998;7.098;2024-01-06T08:45:57;16.00;;;7.18;;
76284;SDS011;71676;50.998;7.098;2024-01-06T08:48:24;15.63;;;6.15;;
76284;SDS011;71676;50.998;7.098;2024-01-06T08:50:52;15.77;;;6.53;;
76284;SDS011;71676;50.998;7.098;2024-01-06T08:53:19;15.85;;;7.45;;
76284;SDS011;71676;50.998;7.098;2024-01-06T08:55:45;16.38;;;6.22;;
76284;SDS011;71676;50.998;7.098;2024-01-06T08:58:12;16.20;;;6.88;;
76284;SDS011;71676;50.998;7.098;2024-01-06T09:00:38;15.02;;;6.80;;
76284;SDS011;71676;50.998;7.098;2024-01-06T09:03:05;15.30;;;6.60;;
76284;SDS011;71676;50.998;7.098;2024-01-06T09:05:32;14.27;;;6.60;;
76284;SDS011;71676;50.998;7.098;2024-01-06T09:08:00;15.77;;;7.07;;
76284;SDS011;71676;50.998;7.098;2024-01-06T09:10:28;15.65;;;6.07;;
76284;SDS011;71676;50.998;7.098;2024-01-06T09:12:55;14.55;;;6.53;;
76284;SDS011;71676;50.998;7.098;2024-01-06T09:15:21;14.25;;;6.55;;
76284;SDS011;71676;50.998;7.098;2024-01-06T09:17:48;15.35;;;6.28;;
76284;SDS011;71676;50.998;7.098;2024-01-06T09:20:15;14.52;;;6.22;;
76284;SDS011;71676;50.998;7.098;2024-01-06T09:22:42;15.32;;;6.63;;
76284;SDS011;71676;50.998;7.098;2024-01-06T09:25:10;16.58;;;6.75;;
76284;SDS011;71676;50.998;7.098;2024-01-06T09:27:38;16.40;;;7.07;;
76284;SDS011;71676;50.998;7.098;2024-01-06T09:30:05;15.38;;;6.35;;
76284;SDS011;71676;50.998;7.098;2024-01-06T09:32:33;14.35;;;6.60;;
76284;SDS011;71676;50.998;7.098;2024-01-06T09:35:00;14.57;;;6.35;;
76284;SDS011;71676;50.998;7.098;2024-01-06T09:37:26;16.20;;;6.75;;
76284;SDS011;71676;50.998;7.098;2024-01-06T09:39:53;14.27;;;6.25;;
76284;SDS011;71676;50.998;7.098;2024-01-06T09:42:21;15.13;;;6.93;;
76284;SDS011;71676;50.998;7.098;2024-01-06T09:44:47;15.02;;;6.68;;
76284;SDS011;71676;50.998;7.098;2024-01-06T09:47:14;16.08;;;6.63;;
76284;SDS011;71676;50.998;7.098;2024-01-06T09:49:44;15.55;;;6.60;;
76284;SDS011;71676;50.998;7.098;2024-01-06T09:52:15;14.98;;;6.10;;
76284;SDS011;71676;50.998;7.098;2024-01-06T09:54:50;14.35;;;6.05;;
76284;SDS011;71676;50.998;7.098;2024-01-06T09:57:18;15.25;;;6.65;;
76284;SDS011;71676;50.998;7.098;2024-01-06T09:59:46;13.48;;;6.28;;
76284;SDS011;71676;50.998;7.098;2024-01-06T10:02:14;17.00;;;7.35;;
76284;SDS011;71676;50.998;7.098;2024-01-06T10:04:42;15.63;;;6.95;;
76284;SDS011;71676;50.998;7.098;2024-01-06T10:07:09;16.45;;;7.85;;
76284;SDS011;71676;50.998;7.098;2024-01-06T10:09:37;17.48;;;7.72;;
76284;SDS011;71676;50.998;7.098;2024-01-06T10:12:05;16.50;;;6.82;;
76284;SDS011;71676;50.998;7.098;2024-01-06T10:14:32;15.82;;;7.93;;
76284;SDS011;71676;50.998;7.098;2024-01-06T10:17:00;15.82;;;7.38;;
76284;SDS011;71676;50.998;7.098;2024-01-06T10:19:27;12.38;;;5.15;;
76284;SDS011;71676;50.998;7.098;2024-01-06T10:21:54;13.93;;;5.88;;
76284;SDS011;71676;50.998;7.098;2024-01-06T10:24:21;11.52;;;5.10;;
76284;SDS011;71676;50.998;7.098;2024-01-06T10:26:48;11.65;;;4.90;;
76284;SDS011;71676;50.998;7.098;2024-01-06T10:29:14;13.75;;;5.70;;
76284;SDS011;71676;50.998;7.098;2024-01-06T10:31:41;12.15;;;5.53;;
76284;SDS011;71676;50.998;7.098;2024-01-06T10:34:09;13.27;;;5.95;;
76284;SDS011;71676;50.998;7.098;2024-01-06T10:36:36;16.48;;;7.50;;
76284;SDS011;71676;50.998;7.098;2024-01-06T10:39:02;17.75;;;7.43;;
76284;SDS011;71676;50.998;7.098;2024-01-06T10:41:30;17.55;;;8.13;;
76284;SDS011;71676;50.998;7.098;2024-01-06T10:43:57;17.08;;;8.18;;
76284;SDS011;71676;50.998;7.098;2024-01-06T10:46:26;18.42;;;8.50;;
76284;SDS011;71676;50.998;7.098;2024-01-06T10:48:54;17.48;;;8.50;;
76284;SDS011;71676;50.998;7.098;2024-01-06T10:51:25;18.48;;;8.32;;
76284;SDS011;71676;50.998;7.098;2024-01-06T10:53:54;17.67;;;8.45;;
76284;SDS011;71676;50.998;7.098;2024-01-06T10:56:24;19.65;;;8.27;;
76284;SDS011;71676;50.998;7.098;2024-01-06T10:58:51;18.50;;;9.07;;
76284;SDS011;71676;50.998;7.098;2024-01-06T11:01:21;16.75;;;7.85;;
76284;SDS011;71676;50.998;7.098;2024-01-06T11:03:49;17.75;;;8.32;;
76284;SDS011;71676;50.998;7.098;2024-01-06T11:06:16;18.30;;;8.65;;
76284;SDS011;71676;50.998;7.098;2024-01-06T11:08:48;18.70;;;8.60;;
76284;SDS011;71676;50.998;7.098;2024-01-06T11:11:19;16.08;;;7.45;;
76284;SDS011;71676;50.998;7.098;2024-01-06T11:13:46;17.63;;;7.57;;
76284;SDS011;71676;50.998;7.098;2024-01-06T11:19:02;20.17;;;8.90;;
76284;SDS011;71676;50.998;7.098;2024-01-06T11:21:33;22.27;;;9.60;;
76284;SDS011;71676;50.998;7.098;2024-01-06T11:24:17;21.45;;;9.75;;
76284;SDS011;71676;50.998;7.098;2024-01-06T11:26:49;24.60;;;10.18;;
76284;SDS011;71676;50.998;7.098;2024-01-06T11:29:16;27.48;;;11.95;;
76284;SDS011;71676;50.998;7.098;2024-01-06T11:31:49;24.67;;;10.85;;
76284;SDS011;71676;50.998;7.098;2024-01-06T11:34:53;26.38;;;11.20;;
76284;SDS011;71676;50.998;7.098;2024-01-06T11:37:24;28.95;;;11.73;;
76284;SDS011;71676;50.998;7.098;2024-01-06T11:40:03;24.45;;;11.00;;
76284;SDS011;71676;50.998;7.098;2024-01-06T11:42:33;21.20;;;10.00;;
76284;SDS011;71676;50.998;7.098;2024-01-06T11:45:04;24.75;;;10.50;;
76284;SDS011;71676;50.998;7.098;2024-01-06T11:47:31;22.60;;;9.43;;
76284;SDS011;71676;50.998;7.098;2024-01-06T11:49:58;19.35;;;8.70;;
76284;SDS011;71676;50.998;7.098;2024-01-06T11:52:29;21.55;;;7.72;;
76284;SDS011;71676;50.998;7.098;2024-01-06T11:54:56;23.48;;;9.18;;
76284;SDS011;71676;50.998;7.098;2024-01-06T11:57:24;20.67;;;8.27;;
76284;SDS011;71676;50.998;7.098;2024-01-06T11:59:51;20.60;;;8.85;;
76284;SDS011;71676;50.998;7.098;2024-01-06T12:02:18;22.52;;;8.30;;
76284;SDS011;71676;50.998;7.098;2024-01-06T12:04:47;22.73;;;9.18;;
76284;SDS011;71676;50.998;7.098;2024-01-06T12:07:15;21.70;;;8.65;;
76284;SDS011;71676;50.998;7.098;2024-01-06T12:09:42;19.00;;;8.50;;
76284;SDS011;71676;50.998;7.098;2024-01-06T12:12:09;22.30;;;9.05;;
76284;SDS011;71676;50.998;7.098;2024-01-06T12:14:40;26.60;;;11.95;;
76284;SDS011;71676;50.998;7.098;2024-01-06T12:17:07;24.88;;;10.80;;
76284;SDS011;71676;50.998;7.098;2024-01-06T12:19:34;27.55;;;11.88;;
76284;SDS011;71676;50.998;7.098;2024-01-06T12:22:01;24.77;;;11.07;;
76284;SDS011;71676;50.998;7.098;2024-01-06T12:24:28;26.40;;;12.23;;
76284;SDS011;71676;50.998;7.098;2024-01-06T12:26:55;24.13;;;10.32;;
76284;SDS011;71676;50.998;7.098;2024-01-06T12:29:23;23.48;;;9.88;;
76284;SDS011;71676;50.998;7.098;2024-01-06T12:31:54;25.40;;;9.32;;
76284;SDS011;71676;50.998;7.098;2024-01-06T12:34:21;24.13;;;10.25;;
76284;SDS011;71676;50.998;7.098;2024-01-06T12:36:48;22.15;;;8.85;;
76284;SDS011;71676;50.998;7.098;2024-01-06T12:39:20;23.35;;;8.65;;
76284;SDS011;71676;50.998;7.098;2024-01-06T12:41:48;22.00;;;9.05;;
76284;SDS011;71676;50.998;7.098;2024-01-06T12:44:16;24.42;;;9.60;;
76284;SDS011;71676;50.998;7.098;2024-01-06T12:46:42;22.75;;;9.25;;
76284;SDS011;71676;50.998;7.098;2024-01-06T12:49:11;26.50;;;10.18;;
76284;SDS011;71676;50.998;7.098;2024-01-06T12:51:37;23.27;;;9.82;;
76284;SDS011;71676;50.998;7.098;2024-01-06T12:54:04;24.75;;;9.95;;
76284;SDS011;71676;50.998;7.098;2024-01-06T12:56:31;25.10;;;10.48;;
76284;SDS011;71676;50.998;7.098;2024-01-06T12:58:58;29.52;;;10.65;;
76284;SDS011;71676;50.998;7.098;2024-01-06T13:01:24;24.02;;;11.02;;
76284;SDS011;71676;50.998;7.098;2024-01-06T13:03:51;24.05;;;10.27;;
76284;SDS011;71676;50.998;7.098;2024-01-06T13:06:20;23.08;;;9.40;;
76284;SDS011;71676;50.998;7.098;2024-01-06T13:08:47;22.38;;;9.45;;
76284;SDS011;71676;50.998;7.098;2024-01-06T13:11:14;22.73;;;9.18;;
76284;SDS011;71676;50.998;7.098;2024-01-06T13:13:41;21.63;;;8.77;;
76284;SDS011;71676;50.998;7.098;2024-01-06T13:16:07;20.88;;;9.20;;
76284;SDS011;71676;50.998;7.098;2024-01-06T13:18:34;22.23;;;9.20;;
76284;SDS011;71676;50.998;7.098;2024-01-06T13:21:01;20.23;;;9.60;;
76284;SDS011;71676;50.998;7.098;2024-01-06T13:23:29;23.38;;;9.27;;
76284;SDS011;71676;50.998;7.098;2024-01-06T13:25:55;24.48;;;10.70;;
76284;SDS011;71676;50.998;7.098;2024-01-06T13:28:24;23.30;;;10.50;;
76284;SDS011;71676;50.998;7.098;2024-01-06T13:30:50;25.77;;;11.20;;
76284;SDS011;71676;50.998;7.098;2024-01-06T13:33:18;26.55;;;12.55;;
76284;SDS011;71676;50.998;7.098;2024-01-06T13:35:45;29.00;;;13.10;;
76284;SDS011;71676;50.998;7.098;2024-01-06T13:38:11;31.17;;;12.95;;
76284;SDS011;71676;50.998;7.098;2024-01-06T13:40:39;26.25;;;12.80;;
76284;SDS011;71676;50.998;7.098;2024-01-06T13:43:06;26.95;;;12.00;;
76284;SDS011;71676;50.998;7.098;2024-01-06T13:45:34;23.83;;;9.95;;
76284;SDS011;71676;50.998;7.098;2024-01-06T13:48:01;26.08;;;10.95;;
76284;SDS011;71676;50.998;7.098;2024-01-06T13:50:28;22.42;;;10.90;;
76284;SDS011;71676;50.998;7.098;2024-01-06T13:52:55;22.88;;;10.55;;
76284;SDS011;71676;50.998;7.098;2024-01-06T13:55:21;21.15;;;10.40;;
76284;SDS011;71676;50.998;7.098;2024-01-06T13:57:50;20.70;;;9.93;;
76284;SDS011;71676;50.998;7.098;2024-01-06T14:00:16;21.52;;;10.57;;
76284;SDS011;71676;50.998;7.098;2024-01-06T14:02:45;21.77;;;11.43;;
76284;SDS011;71676;50.998;7.098;2024-01-06T14:05:12;20.30;;;9.75;;
76284;SDS011;71676;50.998;7.098;2024-01-06T14:07:39;36.05;;;10.98;;
76284;SDS011;71676;50.998;7.098;2024-01-06T14:10:10;21.63;;;9.60;;
76284;SDS011;71676;50.998;7.098;2024-01-06T14:12:37;22.75;;;10.02;;
76284;SDS011;71676;50.998;7.098;2024-01-06T14:15:05;22.90;;;10.15;;
76284;SDS011;71676;50.998;7.098;2024-01-06T14:17:33;23.17;;;10.68;;
76284;SDS011;71676;50.998;7.098;2024-01-06T14:19:59;23.38;;;10.18;;
76284;SDS011;71676;50.998;7.098;2024-01-06T14:22:26;23.65;;;9.82;;
76284;SDS011;71676;50.998;7.098;2024-01-06T14:24:53;24.73;;;11.35;;
76284;SDS011;71676;50.998;7.098;2024-01-06T14:27:20;27.13;;;11.88;;
76284;SDS011;71676;50.998;7.098;2024-01-06T14:29:47;24.83;;;12.13;;
76284;SDS011;71676;50.998;7.098;2024-01-06T14:32:15;26.88;;;11.45;;
76284;SDS011;71676;50.998;7.098;2024-01-06T14:34:42;27.10;;;12.40;;
76284;SDS011;71676;50.998;7.098;2024-01-06T14:37:09;25.83;;;11.43;;
76284;SDS011;71676;50.998;7.098;2024-01-06T14:39:36;27.83;;;12.43;;
76284;SDS011;71676;50.998;7.098;2024-01-06T14:42:02;28.27;;;12.20;;
76284;SDS011;71676;50.998;7.098;2024-01-06T14:44:29;30.90;;;13.15;;
76284;SDS011;71676;50.998;7.098;2024-01-06T14:46:56;29.85;;;11.85;;
76284;SDS011;71676;50.998;7.098;2024-01-06T14:49:24;29.73;;;12.10;;
76284;SDS011;71676;50.998;7.098;2024-01-06T14:51:51;28.23;;;12.73;;
76284;SDS011;71676;50.998;7.098;2024-01-06T14:54:18;28.67;;;12.35;;
76284;SDS011;71676;50.998;7.098;2024-01-06T14:56:44;30.45;;;12.07;;
76284;SDS011;71676;50.998;7.098;2024-01-06T14:59:11;31.63;;;13.52;;
76284;SDS011;71676;50.998;7.098;2024-01-06T15:01:42;29.25;;;12.80;;
76284;SDS011;71676;50.998;7.098;2024-01-06T15:04:09;33.92;;;13.35;;
76284;SDS011;71676;50.998;7.098;2024-01-06T15:06:37;34.55;;;14.50;;
76284;SDS011;71676;50.998;7.098;2024-01-06T15:09:03;32.10;;;13.77;;
76284;SDS011;71676;50.998;7.098;2024-01-06T15:11:30;30.58;;;12.45;;
76284;SDS011;71676;50.998;7.098;2024-01-06T15:13:57;33.38;;;12.90;;
76284;SDS011;71676;50.998;7.098;2024-01-06T15:16:24;27.48;;;11.65;;
76284;SDS011;71676;50.998;7.098;2024-01-06T15:18:50;27.40;;;12.32;;
76284;SDS011;71676;50.998;7.098;2024-01-06T15:21:17;28.52;;;11.45;;
76284;SDS011;71676;50.998;7.098;2024-01-06T15:23:49;30.67;;;13.00;;
76284;SDS011;71676;50.998;7.098;2024-01-06T15:26:20;30.23;;;11.07;;
76284;SDS011;71676;50.998;7.098;2024-01-06T15:28:48;28.88;;;11.57;;
76284;SDS011;71676;50.998;7.098;2024-01-06T15:31:14;29.17;;;11.98;;
76284;SDS011;71676;50.998;7.098;2024-01-06T15:33:41;27.80;;;11.93;;
76284;SDS011;71676;50.998;7.098;2024-01-06T15:36:08;27.65;;;12.20;;
76284;SDS011;71676;50.998;7.098;2024-01-06T15:38:34;28.35;;;12.55;;
76284;SDS011;71676;50.998;7.098;2024-01-06T15:41:02;27.98;;;12.80;;
76284;SDS011;71676;50.998;7.098;2024-01-06T15:43:29;29.70;;;11.85;;
76284;SDS011;71676;50.998;7.098;2024-01-06T15:45:56;25.50;;;11.48;;
76284;SDS011;71676;50.998;7.098;2024-01-06T15:48:23;27.58;;;11.82;;
76284;SDS011;71676;50.998;7.098;2024-01-06T15:50:50;23.58;;;10.07;;
76284;SDS011;71676;50.998;7.098;2024-01-06T15:53:17;25.45;;;11.05;;
76284;SDS011;71676;50.998;7.098;2024-01-06T15:55:44;26.15;;;11.25;;
76284;SDS011;71676;50.998;7.098;2024-01-06T15:58:12;21.25;;;9.90;;
76284;SDS011;71676;50.998;7.098;2024-01-06T16:00:38;25.80;;;10.75;;
76284;SDS011;71676;50.998;7.098;2024-01-06T16:03:05;21.27;;;9.77;;
76284;SDS011;71676;50.998;7.098;2024-01-06T16:05:31;24.20;;;10.30;;
76284;SDS011;71676;50.998;7.098;2024-01-06T16:07:58;22.48;;;9.35;;